createdAt,value
2023-05-23T00:04:03.137Z,18.17
2023-05-23T00:08:08.451Z,18.09
2023-05-23T00:12:12.485Z,18.03
2023-05-23T00:16:16.982Z,17.98
2023-05-23T00:20:21.291Z,17.93
2023-05-23T00:24:26.287Z,17.92
2023-05-23T00:28:29.224Z,17.89
2023-05-23T00:32:32.631Z,17.87
2023-05-23T00:36:38.353Z,17.85
2023-05-23T00:40:43.097Z,17.84
2023-05-23T00:44:48.639Z,17.80
2023-05-23T00:48:52.120Z,17.81
2023-05-23T00:52:55.193Z,17.82
2023-05-23T00:56:59.991Z,17.82
2023-05-23T01:01:03.391Z,17.81
2023-05-23T01:05:08.135Z,17.79
2023-05-23T01:09:11.141Z,17.73
2023-05-23T01:13:25.232Z,17.71
2023-05-23T01:17:36.672Z,17.68
2023-05-23T01:21:42.243Z,17.65
2023-05-23T01:26:05.389Z,17.65
2023-05-23T01:30:13.032Z,17.66
2023-05-23T01:34:20.361Z,17.60
2023-05-23T01:38:24.945Z,17.53
2023-05-23T01:42:28.943Z,17.49
2023-05-23T01:46:35.811Z,17.47
2023-05-23T01:50:39.195Z,17.45
2023-05-23T01:54:44.624Z,17.44
2023-05-23T01:58:48.169Z,17.41
2023-05-23T02:02:53.064Z,17.39
2023-05-23T02:06:56.162Z,17.37
2023-05-23T02:10:59.595Z,17.36
2023-05-23T02:15:02.996Z,17.36
2023-05-23T02:19:08.168Z,17.36
2023-05-23T02:23:11.562Z,17.31
2023-05-23T02:27:15.289Z,17.29
2023-05-23T02:31:18.476Z,17.29
2023-05-23T02:35:23.976Z,17.29
2023-05-23T02:39:26.973Z,17.28
2023-05-23T02:43:30.368Z,17.25
2023-05-23T02:47:33.731Z,17.24
2023-05-23T02:51:38.981Z,17.22
2023-05-23T02:55:43.224Z,17.18
2023-05-23T02:59:46.842Z,17.15
2023-05-23T03:03:50.149Z,17.11
2023-05-23T03:07:55.381Z,17.08
2023-05-23T03:11:58.466Z,17.04
2023-05-23T03:16:02.204Z,17.01
2023-05-23T03:20:10.067Z,16.98
2023-05-23T03:24:14.913Z,16.98
2023-05-23T03:28:18.013Z,16.97
2023-05-23T03:32:21.287Z,16.97
2023-05-23T03:36:26.507Z,17.01
2023-05-23T03:40:31.049Z,17.06
2023-05-23T03:44:34.274Z,17.10
2023-05-23T03:48:37.877Z,17.11
2023-05-23T03:52:41.088Z,17.15
2023-05-23T03:56:46.196Z,17.17
2023-05-23T04:00:49.833Z,17.21
2023-05-23T04:04:54.285Z,17.27
2023-05-23T04:08:57.746Z,17.35
2023-05-23T04:13:02.777Z,17.45
2023-05-23T04:17:06.377Z,17.54
2023-05-23T04:21:09.349Z,17.67
2023-05-23T04:25:12.761Z,17.79
2023-05-23T04:29:18.007Z,17.95
2023-05-23T04:33:21.859Z,18.13
2023-05-23T04:37:26.556Z,18.33
2023-05-23T04:41:29.928Z,18.56
2023-05-23T04:45:34.913Z,18.75
2023-05-23T04:49:39.934Z,18.95
2023-05-23T04:53:44.119Z,19.14
2023-05-23T04:57:47.317Z,19.35
2023-05-23T05:01:51.884Z,19.65
2023-05-23T05:05:57.684Z,19.90
2023-05-23T05:10:01.372Z,20.13
2023-05-23T05:14:06.132Z,20.33
2023-05-23T05:18:12.279Z,20.47
2023-05-23T05:22:15.967Z,20.54
2023-05-23T05:26:20.228Z,20.61
2023-05-23T05:30:24.890Z,20.67
2023-05-23T05:34:30.067Z,20.77
2023-05-23T05:38:33.378Z,20.94
2023-05-23T05:42:36.441Z,21.18
2023-05-23T05:46:39.678Z,21.50
2023-05-23T05:50:45.740Z,21.86
2023-05-23T05:54:50.171Z,22.23
2023-05-23T05:58:54.553Z,22.57
2023-05-23T06:02:58.017Z,22.86
2023-05-23T06:07:02.788Z,23.14
2023-05-23T06:11:06.551Z,23.38
2023-05-23T06:15:10.783Z,23.59
2023-05-23T06:19:14.183Z,23.78
2023-05-23T06:23:18.809Z,23.94
2023-05-23T06:27:22.203Z,24.05
2023-05-23T06:31:25.507Z,24.12
2023-05-23T06:35:28.993Z,24.20
2023-05-23T06:39:33.598Z,24.30
2023-05-23T06:43:37.285Z,24.42
2023-05-23T06:47:44.440Z,24.59
2023-05-23T06:51:47.743Z,24.78
2023-05-23T06:55:52.312Z,25.03
2023-05-23T06:59:55.787Z,25.32
2023-05-23T07:03:59.219Z,25.68
2023-05-23T07:08:02.858Z,26.07
2023-05-23T07:12:08.287Z,26.40
2023-05-23T07:16:11.442Z,26.62
2023-05-23T07:20:14.810Z,26.72
2023-05-23T07:24:18.273Z,26.80
2023-05-23T07:28:23.262Z,26.98
2023-05-23T07:32:26.568Z,27.39
2023-05-23T07:36:35.060Z,27.90
2023-05-23T07:40:40.890Z,28.19
2023-05-23T07:44:46.091Z,27.94
2023-05-23T07:48:49.154Z,27.36
2023-05-23T07:52:52.779Z,26.56
2023-05-23T07:56:56.277Z,25.73
2023-05-23T08:01:01.309Z,24.99
2023-05-23T08:05:04.989Z,24.35
2023-05-23T08:09:08.131Z,23.77
2023-05-23T08:13:11.955Z,23.26
2023-05-23T08:17:16.983Z,22.85
2023-05-23T08:21:20.778Z,22.58
2023-05-23T08:25:24.868Z,22.40
2023-05-23T08:29:28.611Z,22.39
2023-05-23T08:33:33.197Z,22.55
2023-05-23T08:37:36.810Z,22.91
2023-05-23T08:41:41.127Z,23.47
2023-05-23T08:45:45.197Z,24.23
2023-05-23T08:49:50.910Z,25.12
2023-05-23T08:53:56.789Z,25.91
2023-05-23T08:58:00.824Z,26.57
2023-05-23T09:02:10.224Z,27.04
2023-05-23T09:06:15.098Z,27.47
2023-05-23T09:10:20.753Z,27.99
2023-05-23T09:14:23.761Z,28.62
2023-05-23T09:18:28.476Z,29.30
2023-05-23T09:22:33.062Z,29.97
2023-05-23T09:26:37.106Z,30.57
2023-05-23T09:30:41.773Z,31.09
2023-05-23T09:34:57.790Z,31.57
2023-05-23T09:39:05.490Z,31.91
2023-05-23T09:43:09.648Z,32.17
2023-05-23T09:47:13.124Z,32.38
2023-05-23T09:51:20.205Z,32.51
2023-05-23T09:55:25.001Z,32.65
2023-05-23T09:59:31.062Z,32.74
2023-05-23T10:03:38.875Z,32.71
2023-05-23T10:07:44.234Z,32.68
2023-05-23T10:12:38.373Z,32.61
2023-05-23T10:16:51.742Z,32.63
2023-05-23T10:20:59.255Z,32.62
2023-05-23T10:25:02.962Z,32.62
2023-05-23T10:29:09.144Z,32.62
2023-05-23T10:33:17.542Z,32.56
2023-05-23T10:37:29.069Z,32.39
2023-05-23T10:41:40.244Z,32.10
2023-05-23T10:45:45.860Z,31.91
2023-05-23T10:49:54.783Z,31.77
2023-05-23T10:53:57.997Z,31.75
2023-05-23T10:58:17.467Z,31.80
2023-05-23T11:02:28.570Z,31.81
2023-05-23T11:06:34.373Z,31.85
2023-05-23T11:10:57.682Z,31.79
2023-05-23T11:15:00.924Z,31.77
2023-05-23T11:19:26.496Z,31.88
2023-05-23T11:23:42.265Z,31.99
2023-05-23T11:27:48.498Z,32.07
2023-05-23T11:31:51.868Z,32.24
2023-05-23T11:35:57.252Z,32.38
2023-05-23T11:40:02.453Z,32.40
2023-05-23T11:44:12.948Z,32.47
2023-05-23T11:48:18.121Z,32.46
2023-05-23T11:52:23.112Z,32.57
2023-05-23T11:56:26.787Z,32.61
2023-05-23T12:00:31.782Z,32.63
2023-05-23T12:04:36.766Z,32.36
2023-05-23T12:08:41.662Z,32.02
2023-05-23T12:12:46.205Z,31.84
2023-05-23T12:16:49.853Z,31.74
2023-05-23T12:20:53.652Z,31.66
2023-05-23T12:24:58.828Z,31.42
2023-05-23T12:29:04.156Z,30.98
2023-05-23T12:33:10.646Z,30.12
2023-05-23T12:37:19.844Z,28.89
2023-05-23T12:41:25.296Z,27.41
2023-05-23T12:45:33.983Z,25.67
2023-05-23T12:49:42.740Z,24.31
2023-05-23T12:53:47.012Z,23.27
2023-05-23T12:57:52.232Z,22.63
2023-05-23T13:01:56.977Z,22.22
2023-05-23T13:06:00.727Z,21.93
2023-05-23T13:10:05.384Z,21.77
2023-05-23T13:14:10.441Z,21.68
2023-05-23T13:18:14.943Z,21.70
2023-05-23T13:22:18.458Z,21.75
2023-05-23T13:26:22.056Z,21.81
2023-05-23T13:30:28.797Z,21.90
2023-05-23T13:34:32.366Z,22.00
2023-05-23T13:38:35.857Z,22.11
2023-05-23T13:42:39.296Z,22.22
2023-05-23T13:46:44.584Z,22.25
2023-05-23T13:50:48.323Z,22.22
2023-05-23T13:54:52.433Z,22.15
2023-05-23T13:58:58.060Z,22.08
2023-05-23T14:03:03.272Z,22.02
2023-05-23T14:07:06.998Z,21.97
2023-05-23T14:11:12.126Z,21.93
2023-05-23T14:15:15.357Z,21.93
2023-05-23T14:19:20.650Z,21.95
2023-05-23T14:23:24.131Z,21.99
2023-05-23T14:27:28.705Z,22.06
2023-05-23T14:31:32.022Z,22.14
2023-05-23T14:35:37.037Z,22.30
2023-05-23T14:39:41.439Z,22.49
2023-05-23T14:43:45.817Z,22.70
2023-05-23T14:47:48.947Z,22.85
2023-05-23T14:51:53.962Z,22.95
2023-05-23T14:55:57.778Z,22.98
2023-05-23T15:00:03.215Z,23.00
2023-05-23T15:04:09.843Z,23.01
2023-05-23T15:08:16.912Z,23.03
2023-05-23T15:12:21.052Z,23.06
2023-05-23T15:16:24.361Z,23.12
2023-05-23T15:20:27.340Z,23.19
2023-05-23T15:24:33.719Z,23.22
2023-05-23T15:28:37.908Z,23.19
2023-05-23T15:32:41.654Z,23.12
2023-05-23T15:36:44.654Z,23.04
2023-05-23T15:40:49.392Z,22.98
2023-05-23T15:44:53.922Z,22.92
2023-05-23T15:49:07.188Z,22.94
2023-05-23T15:53:13.543Z,23.02
2023-05-23T15:57:18.334Z,23.18
2023-05-23T16:01:21.509Z,23.40
2023-05-23T16:05:25.030Z,23.69
2023-05-23T16:09:28.358Z,23.95
2023-05-23T16:13:33.104Z,24.06
2023-05-23T16:17:36.385Z,24.03
2023-05-23T16:21:39.760Z,23.92
2023-05-23T16:25:43.477Z,23.73
2023-05-23T16:29:48.216Z,23.56
2023-05-23T16:33:51.966Z,23.39
2023-05-23T16:37:55.271Z,23.33
2023-05-23T16:42:00.547Z,23.31
2023-05-23T16:46:06.161Z,23.28
2023-05-23T16:50:10.251Z,23.23
2023-05-23T16:54:13.759Z,23.12
2023-05-23T16:58:19.391Z,23.08
2023-05-23T17:02:26.273Z,23.16
2023-05-23T17:06:29.884Z,23.29
2023-05-23T17:10:34.021Z,23.44
2023-05-23T17:14:38.621Z,23.56
2023-05-23T17:18:43.504Z,23.59
2023-05-23T17:22:46.900Z,23.59
2023-05-23T17:26:50.033Z,23.55
2023-05-23T17:30:53.686Z,23.51
2023-05-23T17:34:58.425Z,23.43
2023-05-23T17:39:01.450Z,23.35
2023-05-23T17:43:05.873Z,23.20
2023-05-23T17:47:08.983Z,23.07
2023-05-23T17:51:14.177Z,22.93
2023-05-23T17:55:17.450Z,22.80
2023-05-23T17:59:23.756Z,22.66
2023-05-23T18:03:27.897Z,22.52
2023-05-23T18:07:33.005Z,22.35
2023-05-23T18:11:36.333Z,22.16
2023-05-23T18:15:39.666Z,21.98
2023-05-23T18:19:43.077Z,21.80
2023-05-23T18:23:49.144Z,21.65
2023-05-23T18:27:53.128Z,21.52
2023-05-23T18:31:56.565Z,21.39
2023-05-23T18:35:59.795Z,21.26
2023-05-23T18:40:04.747Z,21.13
2023-05-23T18:44:07.971Z,20.98
2023-05-23T18:48:11.707Z,20.84
2023-05-23T18:52:14.963Z,20.72
2023-05-23T18:56:19.916Z,20.59
2023-05-23T19:00:33.131Z,20.42
2023-05-23T19:04:39.016Z,20.26
2023-05-23T19:08:48.674Z,20.09
2023-05-23T19:13:02.350Z,19.96
2023-05-23T19:17:06.915Z,19.79
2023-05-23T19:21:10.808Z,19.69
2023-05-23T19:25:18.044Z,19.60
2023-05-23T19:29:24.009Z,19.52
2023-05-23T19:33:28.192Z,19.48
2023-05-23T19:37:39.665Z,19.43
2023-05-23T19:41:43.375Z,19.37
2023-05-23T19:45:53.133Z,19.38
2023-05-23T19:49:56.854Z,19.37
2023-05-23T19:54:00.689Z,19.41
2023-05-23T19:58:06.314Z,19.46
2023-05-23T20:02:18.783Z,19.51
2023-05-23T20:06:22.445Z,19.56
2023-05-23T20:10:27.676Z,19.61
2023-05-23T20:14:32.712Z,19.63
2023-05-23T20:18:40.247Z,19.68
2023-05-23T20:22:43.906Z,19.68
2023-05-23T20:26:56.007Z,19.69
2023-05-23T20:31:03.068Z,19.68
2023-05-23T20:35:09.962Z,19.71
2023-05-23T20:39:17.051Z,19.71
2023-05-23T20:43:22.533Z,19.75
2023-05-23T20:47:26.355Z,19.78
2023-05-23T20:51:31.011Z,19.78
2023-05-23T20:55:36.010Z,19.78
2023-05-23T20:59:40.125Z,19.80
2023-05-23T21:03:43.440Z,19.78
2023-05-23T21:07:48.500Z,19.79
2023-05-23T21:11:51.443Z,19.76
2023-05-23T21:15:54.804Z,19.71
2023-05-23T21:19:59.231Z,19.66
2023-05-23T21:24:05.267Z,19.64
2023-05-23T21:28:08.220Z,19.63
2023-05-23T21:32:11.882Z,19.58
2023-05-23T21:36:16.929Z,19.59
2023-05-23T21:40:21.678Z,19.56
2023-05-23T21:44:25.013Z,19.55
2023-05-23T21:48:28.266Z,19.54
2023-05-23T21:52:33.698Z,19.52
2023-05-23T21:56:38.475Z,19.51
2023-05-23T22:00:43.623Z,19.47
2023-05-23T22:09:11.706Z,19.42
2023-05-23T22:13:18.193Z,19.43
2023-05-23T22:17:22.984Z,19.44
2023-05-23T22:21:26.971Z,19.46
2023-05-23T22:25:33.033Z,19.48
2023-05-23T22:29:40.160Z,19.50
2023-05-23T22:33:43.446Z,19.50
2023-05-23T22:37:47.475Z,19.51
2023-05-23T22:41:51.162Z,19.54
2023-05-23T22:45:55.759Z,19.54
2023-05-23T22:50:00.036Z,19.54
2023-05-23T22:54:03.434Z,19.54
2023-05-23T22:58:08.204Z,19.54
2023-05-23T23:02:13.183Z,19.56
2023-05-23T23:06:17.024Z,19.54
2023-05-23T23:10:20.580Z,19.52
2023-05-23T23:14:25.774Z,19.54
2023-05-23T23:18:30.804Z,19.51
2023-05-23T23:22:34.664Z,19.47
2023-05-23T23:26:38.026Z,19.45
2023-05-23T23:30:43.920Z,19.42
2023-05-23T23:34:48.838Z,19.40
2023-05-23T23:38:52.659Z,19.35
2023-05-23T23:42:56.027Z,19.28
2023-05-23T23:46:59.252Z,19.18
2023-05-23T23:51:04.025Z,19.09
2023-05-23T23:55:08.122Z,19.00
2023-05-23T23:59:11.956Z,18.88
